x

San Francisco - 18nm West Of San Francisco, Ca (46026) Wave Buoy

1:50am - Tue 21st Nov 2017 All times are PST. -8 hours from GMT.

  • Sig Wave height 3.9ft
  • Swell Direction
  • Peak Period 12s
  • Average Period 7s
  • Wind
    16mph, 18mph gusts
  • Sea Temp 57°f
  • Air Temp 58°f
  • Sea Pressure 1019.2mb
  • San Francisco - 18nm West Of San Francisco, Ca
  • San Francisco - 18nm West Of San Francisco, Ca

More Historic Weather Station data

Upgrade to MSW Pro to gain access to the past 30 days of data for over 8000 Wavebouys and Weather Stations around the globe.

Join

Comparision Forecast

View Surf forecast
   
Tue 11/21 1:50am 4ft 12s 7s 16 18 mph 1019.2mb 57f 58f
12:50am 4ft 12s 8s 11 13 mph 1019.6mb 57f 58f
Mon 11/20 11:50pm 3.5ft 12s 8s 9 11 mph 1019.7mb 57f 58f
10:50pm 4.5ft 12s 7s 7 9 mph 1020mb 57f 58f
9:50pm 4.5ft 12s 8s 2 4 mph 1019.9mb 57f 58f
8:50pm 4.5ft 13s 8s 4 7 mph 1019.4mb 57f 58f
7:50pm 4.5ft 13s 8s 2 4 mph 1019.1mb 57f 58f
6:50pm 4.5ft 12s 7s 4 7 mph 1018.6mb 57f 58f
5:50pm 3.5ft 11s 6s 7 9 mph 1018.7mb 57f 58f
4:50pm 3.5ft 14s 7s 4 7 mph 1018.6mb 57f 58f
3:50pm 3.5ft 12s 7s 7 7 mph 1018.5mb 57f 58f
2:50pm 3.5ft 12s 6s 7 7 mph 1018.5mb 57f 58f
1:50pm 3.5ft 11s 6s 9 11 mph 1018.4mb 57f 58f
12:50pm 3.5ft 12s 6s 9 9 mph 1018.5mb 57f 58f
11:50am 3.5ft 12s 6s 9 11 mph 1019.1mb 57f 58f
10:50am 3ft 12s 7s 7 7 mph 1019.4mb 57f 57f
9:50am 3ft 12s 8s 7 9 mph 1019mb 57f 58f
8:50am 2.5ft 11s 7s 11 13 mph 1018.3mb 57f 57f
7:50am 2.5ft 12s 8s 7 9 mph 1018mb 57f 57f
6:50am 2.5ft 12s 9s 9 11 mph 1017.5mb 57f 57f
5:50am 2.5ft 12s 10s 9 11 mph 1017.3mb 57f 57f
4:50am 2.5ft 13s 10s 9 11 mph 1017.2mb 57f 57f
3:50am 2.5ft 13s 10s 7 9 mph 1017.5mb 57f 57f
2:50am 2.5ft 13s 10s 7 7 mph 1017.9mb 57f 56f
1:50am 2.5ft 13s 10s  -  0 mph 1018.5mb 57f 56f
12:50am 3ft 14s 11s  -  2 mph 1018.6mb 57f 57f
Sun 11/19 11:50pm 3ft 14s 11s 7 9 mph 1017.9mb 57f 57f
10:50pm 2.5ft 14s 10s 7 9 mph 1018.2mb 57f 56f
9:50pm 3ft 14s 10s 7 7 mph 1018.6mb 57f 56f
8:50pm 2.5ft 14s 10s 4 7 mph 1018.7mb 57f 56f
7:50pm 3ft 14s 10s 4 4 mph 1018.6mb 57f 56f
6:50pm 2.5ft 15s 10s 2 4 mph 1019mb 57f 56f
5:50pm 2.5ft 14s 9s 4 7 mph 1019mb 57f 56f
4:50pm 2.5ft 14s 9s 2 4 mph 1018.5mb 58f 56f
3:50pm 2.5ft 14s 8s 2 2 mph 1018.7mb 58f 56f
2:50pm 2.5ft 15s 8s 2 4 mph 1018.4mb 58f 56f
1:50pm 2.5ft 12s 7s 4 7 mph 1018.7mb 57f 56f
12:50pm 2.5ft 13s 7s 7 9 mph 1019mb 57f 55f
11:50am 2.5ft 14s 6s 7 9 mph 1020mb 57f 55f
10:50am 3ft 12s 6s 11 11 mph 1020.5mb 57f 54f
9:50am 3ft 13s 6s 11 13 mph 1020.9mb 56f 54f
8:50am 3ft 8s 6s 11 13 mph 1020.9mb 56f 54f
7:50am 3ft 13s 7s 9 11 mph 1020.9mb 56f 55f
6:50am 3.5ft 13s 7s 9 11 mph 1020.5mb 56f 54f
5:50am 3ft 8s 7s 9 11 mph 1020.5mb 56f 54f
4:50am 3.5ft 8s 8s 4 4 mph 1020.9mb 56f 55f
3:50am 3.5ft 8s 8s 2 4 mph 1021.2mb 56f 55f
2:50am 3.5ft 8s 8s 4 7 mph 1021.3mb 56f 55f
1:50am 3.5ft 13s 8s 7 7 mph 1021.3mb 56f 55f
12:50am 3.5ft 12s 8s 7 9 mph 1021.4mb 56f 55f
Sat 11/18 11:50pm 3ft 9s 8s 9 9 mph 1021.6mb 56f 55f
10:50pm 3.5ft 13s 7s 7 9 mph 1021.7mb 56f 55f
9:50pm 3.5ft 9s 7s 9 11 mph 1020.9mb 56f 55f
8:50pm 3.5ft 10s 7s 11 13 mph 1021.4mb 56f 55f
7:50pm 3.5ft 13s 7s 9 11 mph 1021.4mb 56f 55f
6:50pm 3.5ft 10s 7s 9 11 mph 1021.4mb 57f 56f
5:50pm 3.5ft 10s 7s 11 13 mph 1020.9mb 57f 56f
4:50pm 3.5ft 10s 7s 9 11 mph 1020.9mb 58f 56f
3:50pm 4ft 14s 7s 7 9 mph 1021.3mb 58f 56f
2:50pm 4ft 10s 7s 7 9 mph 1021.7mb 58f 56f
1:50pm 4.5ft 13s 7s 7 9 mph 1022.2mb 58f 56f
12:50pm 3.5ft 9s 7s 4 7 mph 1022.4mb 57f 56f
11:50am 4.5ft 10s 7s 7 9 mph 1023.4mb 57f 55f
10:50am 4.5ft 9s 7s 11 13 mph 1023.6mb 57f 54f
9:50am 4.5ft 10s 7s 11 13 mph 1023.6mb 56f 54f
8:50am 4.5ft 10s 8s 11 13 mph 1023.6mb 56f 54f
7:50am 4.5ft 10s 7s 9 11 mph 1023.7mb 56f 54f
6:50am 4ft 10s 7s 9 11 mph 1023.3mb 56f 53f
5:50am 4.5ft 9s 8s 9 11 mph 1022.9mb 56f 54f
4:50am 4ft 10s 7s 7 9 mph 1022.6mb 56f 54f
3:50am 4ft 10s 7s 4 7 mph 1022.6mb 56f 55f
2:50am 4ft 10s 7s 2 4 mph 1022.9mb 56f 55f
1:50am 4ft 10s 7s 2 4 mph 1022.8mb 56f 55f
12:50am 4.5ft 11s 7s 2 4 mph 1022.8mb 56f 55f
Fri 11/17 11:50pm 4.5ft 11s 7s 4 7 mph 1022.7mb 56f 55f
10:50pm 4.5ft 10s 7s 9 11 mph 1022.8mb 57f 55f
9:50pm 4.5ft 11s 7s 11 13 mph 1022.9mb 57f 56f
8:50pm 5ft 10s 7s 11 13 mph 1022.6mb 57f 55f
7:50pm 5ft 11s 6s 11 13 mph 1022.6mb 57f 56f
6:50pm 4.5ft 11s 6s 13 16 mph 1022.2mb 57f 56f
5:50pm 4.5ft 10s 6s 20 22 mph 1021.5mb 57f 56f
4:50pm 4.5ft 8s 6s 13 16 mph 1021.7mb 57f 56f
3:50pm 5ft 9s 7s 13 18 mph 1021.6mb 57f 56f
2:50pm 5ft 9s 7s 13 16 mph 1022mb 57f 56f
1:50pm 5.5ft 9s 7s 13 16 mph 1022.2mb 57f 55f
12:50pm 5ft 11s 7s 13 16 mph 1022.2mb 57f 55f
11:50am 5ft 12s 7s 13 16 mph 1022.6mb 56f 55f
10:50am 5.5ft 11s 7s 13 16 mph 1022.6mb 56f 55f